sensor_id;sensor_type;location;lat;lon;timestamp;P1;durP1;ratioP1;P2;durP2;ratioP2
15067;SDS011;7633;60.024;18.770;2023-12-22T00:02:09;3.53;;;1.97;;
15067;SDS011;7633;60.024;18.770;2023-12-22T00:04:34;2.53;;;1.50;;
15067;SDS011;7633;60.024;18.770;2023-12-22T00:07:00;4.80;;;2.20;;
15067;SDS011;7633;60.024;18.770;2023-12-22T00:09:25;3.40;;;1.80;;
15067;SDS011;7633;60.024;18.770;2023-12-22T00:11:50;3.20;;;1.70;;
15067;SDS011;7633;60.024;18.770;2023-12-22T00:14:17;2.70;;;1.80;;
15067;SDS011;7633;60.024;18.770;2023-12-22T00:16:42;2.40;;;1.70;;
15067;SDS011;7633;60.024;18.770;2023-12-22T00:19:07;3.80;;;2.27;;
15067;SDS011;7633;60.024;18.770;2023-12-22T00:21:32;3.80;;;2.03;;
15067;SDS011;7633;60.024;18.770;2023-12-22T00:23:58;3.23;;;1.63;;
15067;SDS011;7633;60.024;18.770;2023-12-22T00:26:23;3.03;;;1.90;;
15067;SDS011;7633;60.024;18.770;2023-12-22T00:28:48;2.37;;;1.73;;
15067;SDS011;7633;60.024;18.770;2023-12-22T00:31:14;2.73;;;2.10;;
15067;SDS011;7633;60.024;18.770;2023-12-22T00:33:39;2.83;;;1.87;;
15067;SDS011;7633;60.024;18.770;2023-12-22T00:36:04;3.33;;;2.17;;
15067;SDS011;7633;60.024;18.770;2023-12-22T00:38:30;2.83;;;1.93;;
15067;SDS011;7633;60.024;18.770;2023-12-22T00:40:56;2.13;;;1.60;;
15067;SDS011;7633;60.024;18.770;2023-12-22T00:43:21;3.17;;;1.70;;
15067;SDS011;7633;60.024;18.770;2023-12-22T00:45:46;1.90;;;1.23;;
15067;SDS011;7633;60.024;18.770;2023-12-22T00:48:12;2.17;;;1.67;;
15067;SDS011;7633;60.024;18.770;2023-12-22T00:50:37;3.80;;;1.73;;
15067;SDS011;7633;60.024;18.770;2023-12-22T00:53:02;2.70;;;1.70;;
15067;SDS011;7633;60.024;18.770;2023-12-22T00:55:28;3.73;;;2.10;;
15067;SDS011;7633;60.024;18.770;2023-12-22T00:57:53;2.83;;;1.83;;
15067;SDS011;7633;60.024;18.770;2023-12-22T01:00:18;5.93;;;2.40;;
15067;SDS011;7633;60.024;18.770;2023-12-22T01:02:44;5.83;;;2.83;;
15067;SDS011;7633;60.024;18.770;2023-12-22T01:05:09;3.93;;;2.33;;
15067;SDS011;7633;60.024;18.770;2023-12-22T01:07:35;2.63;;;2.03;;
15067;SDS011;7633;60.024;18.770;2023-12-22T01:10:00;3.33;;;2.10;;
15067;SDS011;7633;60.024;18.770;2023-12-22T01:12:27;3.47;;;2.47;;
15067;SDS011;7633;60.024;18.770;2023-12-22T01:14:53;3.03;;;2.07;;
15067;SDS011;7633;60.024;18.770;2023-12-22T01:17:18;3.93;;;2.47;;
15067;SDS011;7633;60.024;18.770;2023-12-22T01:19:44;5.17;;;2.97;;
15067;SDS011;7633;60.024;18.770;2023-12-22T01:22:10;4.00;;;2.67;;
15067;SDS011;7633;60.024;18.770;2023-12-22T01:24:36;5.77;;;2.90;;
15067;SDS011;7633;60.024;18.770;2023-12-22T01:27:04;2.93;;;2.60;;
15067;SDS011;7633;60.024;18.770;2023-12-22T01:29:33;5.90;;;3.00;;
15067;SDS011;7633;60.024;18.770;2023-12-22T01:31:58;4.23;;;3.03;;
15067;SDS011;7633;60.024;18.770;2023-12-22T01:34:23;4.93;;;2.63;;
15067;SDS011;7633;60.024;18.770;2023-12-22T01:36:51;5.03;;;3.27;;
15067;SDS011;7633;60.024;18.770;2023-12-22T01:39:16;7.63;;;2.90;;
15067;SDS011;7633;60.024;18.770;2023-12-22T01:41:42;4.33;;;2.50;;
15067;SDS011;7633;60.024;18.770;2023-12-22T01:44:07;4.43;;;2.70;;
15067;SDS011;7633;60.024;18.770;2023-12-22T01:46:32;4.40;;;3.43;;
15067;SDS011;7633;60.024;18.770;2023-12-22T01:48:59;7.67;;;2.93;;
15067;SDS011;7633;60.024;18.770;2023-12-22T01:51:28;5.00;;;3.20;;
15067;SDS011;7633;60.024;18.770;2023-12-22T01:53:53;4.60;;;2.37;;
15067;SDS011;7633;60.024;18.770;2023-12-22T01:56:19;5.00;;;2.87;;
15067;SDS011;7633;60.024;18.770;2023-12-22T01:58:44;4.67;;;2.07;;
15067;SDS011;7633;60.024;18.770;2023-12-22T02:01:10;4.20;;;2.60;;
15067;SDS011;7633;60.024;18.770;2023-12-22T02:03:35;4.67;;;2.63;;
15067;SDS011;7633;60.024;18.770;2023-12-22T02:06:02;8.00;;;3.07;;
15067;SDS011;7633;60.024;18.770;2023-12-22T02:08:27;2.97;;;2.27;;
15067;SDS011;7633;60.024;18.770;2023-12-22T02:10:52;5.50;;;2.90;;
15067;SDS011;7633;60.024;18.770;2023-12-22T02:13:18;3.63;;;2.60;;
15067;SDS011;7633;60.024;18.770;2023-12-22T02:15:43;5.57;;;2.87;;
15067;SDS011;7633;60.024;18.770;2023-12-22T02:18:23;2.73;;;2.53;;
15067;SDS011;7633;60.024;18.770;2023-12-22T02:20:50;8.50;;;3.77;;
15067;SDS011;7633;60.024;18.770;2023-12-22T02:23:15;5.33;;;3.20;;
15067;SDS011;7633;60.024;18.770;2023-12-22T02:25:41;5.67;;;2.93;;
15067;SDS011;7633;60.024;18.770;2023-12-22T02:28:10;6.83;;;3.30;;
15067;SDS011;7633;60.024;18.770;2023-12-22T02:30:41;7.13;;;3.67;;
15067;SDS011;7633;60.024;18.770;2023-12-22T02:33:07;6.87;;;3.37;;
15067;SDS011;7633;60.024;18.770;2023-12-22T02:35:35;5.73;;;3.30;;
15067;SDS011;7633;60.024;18.770;2023-12-22T02:38:01;8.83;;;3.87;;
15067;SDS011;7633;60.024;18.770;2023-12-22T02:40:27;5.17;;;3.13;;
15067;SDS011;7633;60.024;18.770;2023-12-22T02:42:52;7.10;;;3.03;;
15067;SDS011;7633;60.024;18.770;2023-12-22T02:45:18;5.63;;;3.13;;
15067;SDS011;7633;60.024;18.770;2023-12-22T02:47:44;5.40;;;3.47;;
15067;SDS011;7633;60.024;18.770;2023-12-22T02:50:09;7.60;;;2.93;;
15067;SDS011;7633;60.024;18.770;2023-12-22T02:52:35;7.70;;;3.23;;
15067;SDS011;7633;60.024;18.770;2023-12-22T02:55:04;4.93;;;3.20;;
15067;SDS011;7633;60.024;18.770;2023-12-22T02:57:30;4.53;;;3.00;;
15067;SDS011;7633;60.024;18.770;2023-12-22T02:59:55;4.57;;;3.20;;
15067;SDS011;7633;60.024;18.770;2023-12-22T03:02:21;6.10;;;3.80;;
15067;SDS011;7633;60.024;18.770;2023-12-22T03:04:46;5.60;;;3.50;;
15067;SDS011;7633;60.024;18.770;2023-12-22T03:07:12;5.67;;;3.40;;
15067;SDS011;7633;60.024;18.770;2023-12-22T03:09:37;8.70;;;3.47;;
15067;SDS011;7633;60.024;18.770;2023-12-22T03:12:03;6.03;;;3.40;;
15067;SDS011;7633;60.024;18.770;2023-12-22T03:14:29;7.00;;;3.80;;
15067;SDS011;7633;60.024;18.770;2023-12-22T03:16:55;5.93;;;2.93;;
15067;SDS011;7633;60.024;18.770;2023-12-22T03:19:20;5.60;;;2.97;;
15067;SDS011;7633;60.024;18.770;2023-12-22T03:21:47;5.13;;;2.87;;
15067;SDS011;7633;60.024;18.770;2023-12-22T03:24:13;6.23;;;2.63;;
15067;SDS011;7633;60.024;18.770;2023-12-22T03:26:38;5.17;;;3.03;;
15067;SDS011;7633;60.024;18.770;2023-12-22T03:29:03;6.07;;;3.27;;
15067;SDS011;7633;60.024;18.770;2023-12-22T03:31:29;5.43;;;3.10;;
15067;SDS011;7633;60.024;18.770;2023-12-22T03:33:54;3.53;;;2.37;;
15067;SDS011;7633;60.024;18.770;2023-12-22T03:36:19;4.77;;;2.53;;
15067;SDS011;7633;60.024;18.770;2023-12-22T03:38:45;3.33;;;2.03;;
15067;SDS011;7633;60.024;18.770;2023-12-22T03:41:10;6.53;;;3.40;;
15067;SDS011;7633;60.024;18.770;2023-12-22T03:43:36;5.73;;;3.33;;
15067;SDS011;7633;60.024;18.770;2023-12-22T03:46:02;6.00;;;2.97;;
15067;SDS011;7633;60.024;18.770;2023-12-22T03:48:28;8.63;;;4.00;;
15067;SDS011;7633;60.024;18.770;2023-12-22T03:50:54;5.53;;;2.97;;
15067;SDS011;7633;60.024;18.770;2023-12-22T03:53:20;3.13;;;2.00;;
15067;SDS011;7633;60.024;18.770;2023-12-22T03:55:46;5.30;;;2.70;;
15067;SDS011;7633;60.024;18.770;2023-12-22T03:58:11;4.87;;;2.80;;
15067;SDS011;7633;60.024;18.770;2023-12-22T04:00:36;5.13;;;2.60;;
15067;SDS011;7633;60.024;18.770;2023-12-22T04:03:02;4.60;;;2.90;;
15067;SDS011;7633;60.024;18.770;2023-12-22T04:05:27;4.93;;;2.80;;
15067;SDS011;7633;60.024;18.770;2023-12-22T04:07:53;5.33;;;2.83;;
15067;SDS011;7633;60.024;18.770;2023-12-22T04:10:18;3.70;;;2.40;;
15067;SDS011;7633;60.024;18.770;2023-12-22T04:12:43;3.83;;;2.37;;
15067;SDS011;7633;60.024;18.770;2023-12-22T04:15:09;6.23;;;3.07;;
15067;SDS011;7633;60.024;18.770;2023-12-22T04:17:34;5.17;;;3.07;;
15067;SDS011;7633;60.024;18.770;2023-12-22T04:19:59;5.73;;;3.43;;
15067;SDS011;7633;60.024;18.770;2023-12-22T04:22:25;4.33;;;2.80;;
15067;SDS011;7633;60.024;18.770;2023-12-22T04:24:50;3.27;;;2.10;;
15067;SDS011;7633;60.024;18.770;2023-12-22T04:27:16;6.03;;;3.10;;
15067;SDS011;7633;60.024;18.770;2023-12-22T04:29:41;5.07;;;3.20;;
15067;SDS011;7633;60.024;18.770;2023-12-22T04:32:06;6.40;;;3.13;;
15067;SDS011;7633;60.024;18.770;2023-12-22T04:34:32;5.33;;;3.23;;
15067;SDS011;7633;60.024;18.770;2023-12-22T04:36:57;6.03;;;3.60;;
15067;SDS011;7633;60.024;18.770;2023-12-22T04:39:22;7.40;;;3.43;;
15067;SDS011;7633;60.024;18.770;2023-12-22T04:41:48;5.33;;;2.77;;
15067;SDS011;7633;60.024;18.770;2023-12-22T04:44:13;5.77;;;2.90;;
15067;SDS011;7633;60.024;18.770;2023-12-22T04:46:38;3.93;;;2.73;;
15067;SDS011;7633;60.024;18.770;2023-12-22T04:49:04;6.03;;;3.00;;
15067;SDS011;7633;60.024;18.770;2023-12-22T04:51:29;3.80;;;2.30;;
15067;SDS011;7633;60.024;18.770;2023-12-22T04:53:55;7.40;;;3.37;;
15067;SDS011;7633;60.024;18.770;2023-12-22T04:56:20;4.67;;;3.10;;
15067;SDS011;7633;60.024;18.770;2023-12-22T04:58:46;5.60;;;2.70;;
15067;SDS011;7633;60.024;18.770;2023-12-22T05:01:11;5.03;;;2.60;;
15067;SDS011;7633;60.024;18.770;2023-12-22T05:03:36;6.60;;;2.80;;
15067;SDS011;7633;60.024;18.770;2023-12-22T05:06:01;4.73;;;2.77;;
15067;SDS011;7633;60.024;18.770;2023-12-22T05:08:28;5.83;;;2.90;;
15067;SDS011;7633;60.024;18.770;2023-12-22T05:10:54;5.03;;;2.17;;
15067;SDS011;7633;60.024;18.770;2023-12-22T05:13:19;4.57;;;2.87;;
15067;SDS011;7633;60.024;18.770;2023-12-22T05:15:45;3.57;;;2.33;;
15067;SDS011;7633;60.024;18.770;2023-12-22T05:18:11;4.10;;;2.57;;
15067;SDS011;7633;60.024;18.770;2023-12-22T05:20:36;5.97;;;2.83;;
15067;SDS011;7633;60.024;18.770;2023-12-22T05:23:01;4.90;;;2.33;;
15067;SDS011;7633;60.024;18.770;2023-12-22T05:25:27;4.83;;;2.97;;
15067;SDS011;7633;60.024;18.770;2023-12-22T05:27:52;6.13;;;3.00;;
15067;SDS011;7633;60.024;18.770;2023-12-22T05:30:17;6.13;;;3.10;;
15067;SDS011;7633;60.024;18.770;2023-12-22T05:32:43;6.23;;;2.77;;
15067;SDS011;7633;60.024;18.770;2023-12-22T05:35:09;4.47;;;2.80;;
15067;SDS011;7633;60.024;18.770;2023-12-22T05:37:35;4.43;;;2.40;;
15067;SDS011;7633;60.024;18.770;2023-12-22T05:40:01;4.27;;;2.37;;
15067;SDS011;7633;60.024;18.770;2023-12-22T05:42:26;5.30;;;2.53;;
15067;SDS011;7633;60.024;18.770;2023-12-22T05:44:52;5.03;;;2.73;;
15067;SDS011;7633;60.024;18.770;2023-12-22T05:47:17;4.93;;;3.00;;
15067;SDS011;7633;60.024;18.770;2023-12-22T05:49:43;5.50;;;2.60;;
15067;SDS011;7633;60.024;18.770;2023-12-22T05:52:08;3.43;;;2.20;;
15067;SDS011;7633;60.024;18.770;2023-12-22T05:54:35;5.87;;;2.77;;
15067;SDS011;7633;60.024;18.770;2023-12-22T05:57:00;4.93;;;2.17;;
15067;SDS011;7633;60.024;18.770;2023-12-22T05:59:26;5.50;;;2.93;;
15067;SDS011;7633;60.024;18.770;2023-12-22T06:01:55;5.57;;;3.00;;
15067;SDS011;7633;60.024;18.770;2023-12-22T06:04:21;5.87;;;3.00;;
15067;SDS011;7633;60.024;18.770;2023-12-22T06:06:46;4.10;;;2.80;;
15067;SDS011;7633;60.024;18.770;2023-12-22T06:09:11;5.87;;;3.03;;
15067;SDS011;7633;60.024;18.770;2023-12-22T06:11:38;4.73;;;2.53;;
15067;SDS011;7633;60.024;18.770;2023-12-22T06:14:04;3.37;;;2.33;;
15067;SDS011;7633;60.024;18.770;2023-12-22T06:16:30;3.70;;;2.33;;
15067;SDS011;7633;60.024;18.770;2023-12-22T06:18:55;4.47;;;2.70;;
15067;SDS011;7633;60.024;18.770;2023-12-22T06:21:20;5.17;;;2.83;;
15067;SDS011;7633;60.024;18.770;2023-12-22T06:23:46;5.27;;;2.30;;
15067;SDS011;7633;60.024;18.770;2023-12-22T06:26:11;4.50;;;2.60;;
15067;SDS011;7633;60.024;18.770;2023-12-22T06:28:36;4.33;;;2.57;;
15067;SDS011;7633;60.024;18.770;2023-12-22T06:31:03;8.40;;;3.00;;
15067;SDS011;7633;60.024;18.770;2023-12-22T06:33:29;4.23;;;2.70;;
15067;SDS011;7633;60.024;18.770;2023-12-22T06:35:55;4.33;;;2.90;;
15067;SDS011;7633;60.024;18.770;2023-12-22T06:38:20;5.47;;;2.53;;
15067;SDS011;7633;60.024;18.770;2023-12-22T06:40:45;4.37;;;2.30;;
15067;SDS011;7633;60.024;18.770;2023-12-22T06:43:30;8.30;;;3.20;;
15067;SDS011;7633;60.024;18.770;2023-12-22T06:45:56;5.93;;;3.27;;
15067;SDS011;7633;60.024;18.770;2023-12-22T06:48:23;4.53;;;2.80;;
15067;SDS011;7633;60.024;18.770;2023-12-22T06:50:48;4.83;;;3.00;;
15067;SDS011;7633;60.024;18.770;2023-12-22T06:53:14;5.83;;;3.20;;
15067;SDS011;7633;60.024;18.770;2023-12-22T06:55:39;6.67;;;2.83;;
15067;SDS011;7633;60.024;18.770;2023-12-22T06:58:04;6.03;;;2.90;;
15067;SDS011;7633;60.024;18.770;2023-12-22T07:00:30;4.47;;;2.63;;
15067;SDS011;7633;60.024;18.770;2023-12-22T07:02:55;3.43;;;2.27;;
15067;SDS011;7633;60.024;18.770;2023-12-22T07:07:46;4.17;;;2.90;;
15067;SDS011;7633;60.024;18.770;2023-12-22T07:10:11;4.77;;;2.60;;
15067;SDS011;7633;60.024;18.770;2023-12-22T07:12:37;5.17;;;2.60;;
15067;SDS011;7633;60.024;18.770;2023-12-22T07:15:04;5.90;;;2.70;;
15067;SDS011;7633;60.024;18.770;2023-12-22T07:17:31;4.37;;;2.53;;
15067;SDS011;7633;60.024;18.770;2023-12-22T07:19:57;5.77;;;2.93;;
15067;SDS011;7633;60.024;18.770;2023-12-22T07:22:22;3.53;;;1.90;;
15067;SDS011;7633;60.024;18.770;2023-12-22T07:24:48;4.83;;;2.70;;
15067;SDS011;7633;60.024;18.770;2023-12-22T07:27:14;4.47;;;2.57;;
15067;SDS011;7633;60.024;18.770;2023-12-22T07:29:39;5.97;;;3.20;;
15067;SDS011;7633;60.024;18.770;2023-12-22T07:32:05;5.20;;;3.13;;
15067;SDS011;7633;60.024;18.770;2023-12-22T07:34:30;5.43;;;2.97;;
15067;SDS011;7633;60.024;18.770;2023-12-22T07:36:55;7.03;;;3.07;;
15067;SDS011;7633;60.024;18.770;2023-12-22T07:39:21;5.80;;;2.87;;
15067;SDS011;7633;60.024;18.770;2023-12-22T07:41:47;7.93;;;3.33;;
15067;SDS011;7633;60.024;18.770;2023-12-22T07:44:13;5.40;;;3.10;;
15067;SDS011;7633;60.024;18.770;2023-12-22T07:46:38;4.43;;;2.90;;
15067;SDS011;7633;60.024;18.770;2023-12-22T07:49:03;7.87;;;2.97;;
15067;SDS011;7633;60.024;18.770;2023-12-22T07:51:29;5.53;;;2.73;;
15067;SDS011;7633;60.024;18.770;2023-12-22T07:53:54;4.50;;;2.47;;
15067;SDS011;7633;60.024;18.770;2023-12-22T07:56:19;5.07;;;2.70;;
15067;SDS011;7633;60.024;18.770;2023-12-22T07:58:45;4.50;;;2.17;;
15067;SDS011;7633;60.024;18.770;2023-12-22T08:01:10;4.40;;;3.07;;
15067;SDS011;7633;60.024;18.770;2023-12-22T08:03:35;7.00;;;3.53;;
15067;SDS011;7633;60.024;18.770;2023-12-22T08:06:02;6.37;;;3.13;;
15067;SDS011;7633;60.024;18.770;2023-12-22T08:08:28;5.40;;;3.30;;
15067;SDS011;7633;60.024;18.770;2023-12-22T08:10:53;6.53;;;3.60;;
15067;SDS011;7633;60.024;18.770;2023-12-22T08:13:18;6.03;;;2.73;;
15067;SDS011;7633;60.024;18.770;2023-12-22T08:15:44;5.77;;;3.50;;
15067;SDS011;7633;60.024;18.770;2023-12-22T08:18:09;4.93;;;3.37;;
15067;SDS011;7633;60.024;18.770;2023-12-22T08:20:34;5.53;;;3.27;;
15067;SDS011;7633;60.024;18.770;2023-12-22T08:23:00;5.63;;;2.93;;
15067;SDS011;7633;60.024;18.770;2023-12-22T08:25:25;6.50;;;3.07;;
15067;SDS011;7633;60.024;18.770;2023-12-22T08:27:51;5.33;;;2.87;;
15067;SDS011;7633;60.024;18.770;2023-12-22T08:30:17;5.73;;;3.27;;
15067;SDS011;7633;60.024;18.770;2023-12-22T08:32:42;6.53;;;3.03;;
15067;SDS011;7633;60.024;18.770;2023-12-22T08:35:07;4.50;;;2.97;;
15067;SDS011;7633;60.024;18.770;2023-12-22T08:37:33;5.83;;;3.37;;
15067;SDS011;7633;60.024;18.770;2023-12-22T08:39:58;4.80;;;3.10;;
15067;SDS011;7633;60.024;18.770;2023-12-22T08:42:26;5.13;;;2.90;;
15067;SDS011;7633;60.024;18.770;2023-12-22T08:44:52;3.77;;;2.47;;
15067;SDS011;7633;60.024;18.770;2023-12-22T08:47:17;4.07;;;2.67;;
15067;SDS011;7633;60.024;18.770;2023-12-22T08:49:43;6.47;;;3.40;;
15067;SDS011;7633;60.024;18.770;2023-12-22T08:52:08;5.80;;;3.00;;
15067;SDS011;7633;60.024;18.770;2023-12-22T08:54:33;8.37;;;3.70;;
15067;SDS011;7633;60.024;18.770;2023-12-22T08:57:00;5.73;;;3.37;;
15067;SDS011;7633;60.024;18.770;2023-12-22T08:59:26;6.37;;;3.60;;
15067;SDS011;7633;60.024;18.770;2023-12-22T09:01:51;5.23;;;2.60;;
15067;SDS011;7633;60.024;18.770;2023-12-22T09:04:16;5.83;;;3.27;;
15067;SDS011;7633;60.024;18.770;2023-12-22T09:06:41;5.33;;;3.27;;
15067;SDS011;7633;60.024;18.770;2023-12-22T09:09:07;6.30;;;2.77;;
15067;SDS011;7633;60.024;18.770;2023-12-22T09:11:35;6.40;;;3.20;;
15067;SDS011;7633;60.024;18.770;2023-12-22T09:14:01;6.63;;;3.20;;
15067;SDS011;7633;60.024;18.770;2023-12-22T09:16:26;7.07;;;2.87;;
15067;SDS011;7633;60.024;18.770;2023-12-22T09:18:51;5.87;;;3.37;;
15067;SDS011;7633;60.024;18.770;2023-12-22T09:21:17;7.13;;;3.43;;
15067;SDS011;7633;60.024;18.770;2023-12-22T09:23:43;4.80;;;2.97;;
15067;SDS011;7633;60.024;18.770;2023-12-22T09:26:11;5.73;;;3.67;;
15067;SDS011;7633;60.024;18.770;2023-12-22T09:28:36;4.80;;;2.90;;
15067;SDS011;7633;60.024;18.770;2023-12-22T09:31:02;5.37;;;3.30;;
15067;SDS011;7633;60.024;18.770;2023-12-22T09:33:30;6.33;;;4.10;;
15067;SDS011;7633;60.024;18.770;2023-12-22T09:35:55;5.77;;;3.57;;
15067;SDS011;7633;60.024;18.770;2023-12-22T09:38:21;5.30;;;3.30;;
15067;SDS011;7633;60.024;18.770;2023-12-22T09:40:49;5.40;;;3.33;;
15067;SDS011;7633;60.024;18.770;2023-12-22T09:43:14;5.77;;;3.13;;
15067;SDS011;7633;60.024;18.770;2023-12-22T09:45:40;5.80;;;3.10;;
15067;SDS011;7633;60.024;18.770;2023-12-22T09:48:05;5.40;;;3.43;;
15067;SDS011;7633;60.024;18.770;2023-12-22T09:50:31;8.27;;;3.53;;
15067;SDS011;7633;60.024;18.770;2023-12-22T09:52:57;6.00;;;3.00;;
15067;SDS011;7633;60.024;18.770;2023-12-22T09:55:23;6.13;;;3.40;;
15067;SDS011;7633;60.024;18.770;2023-12-22T09:57:49;4.47;;;3.10;;
15067;SDS011;7633;60.024;18.770;2023-12-22T10:00:15;5.73;;;3.40;;
15067;SDS011;7633;60.024;18.770;2023-12-22T10:02:40;4.93;;;3.10;;
15067;SDS011;7633;60.024;18.770;2023-12-22T10:05:08;6.17;;;3.63;;
15067;SDS011;7633;60.024;18.770;2023-12-22T10:07:33;4.93;;;3.30;;
15067;SDS011;7633;60.024;18.770;2023-12-22T10:09:59;6.77;;;3.20;;
15067;SDS011;7633;60.024;18.770;2023-12-22T10:12:25;5.03;;;2.93;;
15067;SDS011;7633;60.024;18.770;2023-12-22T10:14:51;6.13;;;3.20;;
15067;SDS011;7633;60.024;18.770;2023-12-22T10:17:17;4.33;;;2.47;;
15067;SDS011;7633;60.024;18.770;2023-12-22T10:19:44;7.40;;;3.20;;
15067;SDS011;7633;60.024;18.770;2023-12-22T10:22:10;4.80;;;3.03;;
15067;SDS011;7633;60.024;18.770;2023-12-22T10:24:39;7.33;;;3.10;;
15067;SDS011;7633;60.024;18.770;2023-12-22T10:27:04;5.93;;;2.67;;
15067;SDS011;7633;60.024;18.770;2023-12-22T10:29:30;5.77;;;3.80;;
15067;SDS011;7633;60.024;18.770;2023-12-22T10:31:55;5.27;;;3.40;;
15067;SDS011;7633;60.024;18.770;2023-12-22T10:34:21;5.93;;;3.00;;
15067;SDS011;7633;60.024;18.770;2023-12-22T10:36:46;4.53;;;3.17;;
15067;SDS011;7633;60.024;18.770;2023-12-22T10:39:12;3.57;;;2.40;;
15067;SDS011;7633;60.024;18.770;2023-12-22T10:41:37;6.13;;;3.33;;
15067;SDS011;7633;60.024;18.770;2023-12-22T10:44:03;4.40;;;2.63;;
15067;SDS011;7633;60.024;18.770;2023-12-22T10:46:30;5.70;;;3.07;;
15067;SDS011;7633;60.024;18.770;2023-12-22T10:48:56;5.20;;;2.87;;
15067;SDS011;7633;60.024;18.770;2023-12-22T10:51:21;4.47;;;3.20;;
15067;SDS011;7633;60.024;18.770;2023-12-22T10:53:46;5.73;;;3.17;;
15067;SDS011;7633;60.024;18.770;2023-12-22T10:56:12;3.83;;;2.70;;
15067;SDS011;7633;60.024;18.770;2023-12-22T10:58:37;6.13;;;3.10;;
15067;SDS011;7633;60.024;18.770;2023-12-22T11:01:04;6.37;;;3.50;;
15067;SDS011;7633;60.024;18.770;2023-12-22T11:03:31;8.07;;;3.43;;
15067;SDS011;7633;60.024;18.770;2023-12-22T11:05:58;5.63;;;3.30;;
15067;SDS011;7633;60.024;18.770;2023-12-22T11:08:26;6.87;;;3.07;;
15067;SDS011;7633;60.024;18.770;2023-12-22T11:10:54;5.53;;;3.47;;
15067;SDS011;7633;60.024;18.770;2023-12-22T11:13:22;7.40;;;3.73;;
15067;SDS011;7633;60.024;18.770;2023-12-22T11:15:49;4.23;;;2.97;;
15067;SDS011;7633;60.024;18.770;2023-12-22T11:18:15;5.67;;;3.77;;
15067;SDS011;7633;60.024;18.770;2023-12-22T11:20:42;6.73;;;3.67;;
15067;SDS011;7633;60.024;18.770;2023-12-22T11:23:09;7.17;;;3.60;;
15067;SDS011;7633;60.024;18.770;2023-12-22T11:25:34;7.40;;;4.10;;
15067;SDS011;7633;60.024;18.770;2023-12-22T11:28:01;6.63;;;3.63;;
15067;SDS011;7633;60.024;18.770;2023-12-22T11:30:27;7.17;;;3.60;;
15067;SDS011;7633;60.024;18.770;2023-12-22T11:32:54;5.50;;;3.10;;
15067;SDS011;7633;60.024;18.770;2023-12-22T11:35:24;3.77;;;2.27;;
15067;SDS011;7633;60.024;18.770;2023-12-22T11:37:50;4.57;;;2.50;;
15067;SDS011;7633;60.024;18.770;2023-12-22T11:40:15;6.43;;;3.20;;
15067;SDS011;7633;60.024;18.770;2023-12-22T11:42:45;5.57;;;3.27;;
15067;SDS011;7633;60.024;18.770;2023-12-22T11:45:12;13.43;;;3.00;;
15067;SDS011;7633;60.024;18.770;2023-12-22T11:47:45;5.23;;;2.50;;
15067;SDS011;7633;60.024;18.770;2023-12-22T11:50:10;4.57;;;2.90;;
15067;SDS011;7633;60.024;18.770;2023-12-22T11:52:36;4.97;;;2.70;;
15067;SDS011;7633;60.024;18.770;2023-12-22T11:55:01;5.57;;;3.40;;
15067;SDS011;7633;60.024;18.770;2023-12-22T11:59:53;5.97;;;3.10;;
15067;SDS011;7633;60.024;18.770;2023-12-22T12:02:18;4.13;;;2.63;;
15067;SDS011;7633;60.024;18.770;2023-12-22T12:04:47;3.83;;;2.40;;
15067;SDS011;7633;60.024;18.770;2023-12-22T12:09:56;3.93;;;2.73;;
15067;SDS011;7633;60.024;18.770;2023-12-22T12:12:22;4.53;;;3.17;;
15067;SDS011;7633;60.024;18.770;2023-12-22T12:14:48;4.13;;;2.40;;
15067;SDS011;7633;60.024;18.770;2023-12-22T12:17:15;3.90;;;2.73;;
15067;SDS011;7633;60.024;18.770;2023-12-22T12:19:41;5.63;;;2.53;;
15067;SDS011;7633;60.024;18.770;2023-12-22T12:22:11;6.07;;;3.03;;
15067;SDS011;7633;60.024;18.770;2023-12-22T12:24:36;3.90;;;2.63;;
15067;SDS011;7633;60.024;18.770;2023-12-22T12:27:03;4.30;;;2.80;;
15067;SDS011;7633;60.024;18.770;2023-12-22T12:29:28;3.27;;;2.50;;
15067;SDS011;7633;60.024;18.770;2023-12-22T12:31:55;5.20;;;3.30;;
15067;SDS011;7633;60.024;18.770;2023-12-22T12:34:27;4.60;;;3.07;;
15067;SDS011;7633;60.024;18.770;2023-12-22T12:36:52;6.57;;;3.00;;
15067;SDS011;7633;60.024;18.770;2023-12-22T12:39:19;4.80;;;3.33;;
15067;SDS011;7633;60.024;18.770;2023-12-22T12:41:48;3.07;;;2.20;;
15067;SDS011;7633;60.024;18.770;2023-12-22T12:44:17;4.30;;;2.33;;
15067;SDS011;7633;60.024;18.770;2023-12-22T12:46:43;4.17;;;2.47;;
15067;SDS011;7633;60.024;18.770;2023-12-22T12:49:09;5.10;;;2.30;;
15067;SDS011;7633;60.024;18.770;2023-12-22T12:51:39;6.40;;;2.17;;
15067;SDS011;7633;60.024;18.770;2023-12-22T12:54:06;5.77;;;2.40;;
15067;SDS011;7633;60.024;18.770;2023-12-22T12:59:06;6.13;;;2.57;;
15067;SDS011;7633;60.024;18.770;2023-12-22T13:01:32;6.27;;;2.67;;
15067;SDS011;7633;60.024;18.770;2023-12-22T13:04:02;3.73;;;2.20;;
15067;SDS011;7633;60.024;18.770;2023-12-22T13:06:28;4.67;;;2.67;;
15067;SDS011;7633;60.024;18.770;2023-12-22T13:08:53;2.70;;;1.73;;
15067;SDS011;7633;60.024;18.770;2023-12-22T13:11:22;3.23;;;1.77;;
15067;SDS011;7633;60.024;18.770;2023-12-22T13:13:48;4.57;;;2.60;;
15067;SDS011;7633;60.024;18.770;2023-12-22T13:16:17;5.03;;;2.53;;
15067;SDS011;7633;60.024;18.770;2023-12-22T13:18:42;3.73;;;1.90;;
15067;SDS011;7633;60.024;18.770;2023-12-22T13:21:08;4.57;;;2.20;;
15067;SDS011;7633;60.024;18.770;2023-12-22T13:23:33;4.03;;;2.07;;
15067;SDS011;7633;60.024;18.770;2023-12-22T13:25:59;4.80;;;2.43;;
15067;SDS011;7633;60.024;18.770;2023-12-22T13:28:25;4.93;;;2.37;;
15067;SDS011;7633;60.024;18.770;2023-12-22T13:30:50;3.70;;;2.33;;
15067;SDS011;7633;60.024;18.770;2023-12-22T13:33:16;4.57;;;2.70;;
15067;SDS011;7633;60.024;18.770;2023-12-22T13:35:41;3.07;;;2.00;;
15067;SDS011;7633;60.024;18.770;2023-12-22T13:38:07;3.87;;;2.27;;
15067;SDS011;7633;60.024;18.770;2023-12-22T13:40:34;3.97;;;2.17;;
15067;SDS011;7633;60.024;18.770;2023-12-22T13:43:00;4.00;;;2.20;;
15067;SDS011;7633;60.024;18.770;2023-12-22T13:45:27;3.57;;;2.10;;
15067;SDS011;7633;60.024;18.770;2023-12-22T13:47:53;3.00;;;2.20;;
15067;SDS011;7633;60.024;18.770;2023-12-22T13:50:19;3.57;;;2.23;;
15067;SDS011;7633;60.024;18.770;2023-12-22T13:52:45;6.90;;;2.50;;
15067;SDS011;7633;60.024;18.770;2023-12-22T13:55:11;2.67;;;1.97;;
15067;SDS011;7633;60.024;18.770;2023-12-22T13:57:36;2.93;;;1.80;;
15067;SDS011;7633;60.024;18.770;2023-12-22T14:00:02;2.27;;;1.80;;
15067;SDS011;7633;60.024;18.770;2023-12-22T14:02:30;4.73;;;2.20;;
15067;SDS011;7633;60.024;18.770;2023-12-22T14:04:55;3.47;;;1.67;;
15067;SDS011;7633;60.024;18.770;2023-12-22T14:07:21;4.07;;;2.47;;
15067;SDS011;7633;60.024;18.770;2023-12-22T14:09:46;3.77;;;1.87;;
15067;SDS011;7633;60.024;18.770;2023-12-22T14:12:12;4.90;;;1.67;;
15067;SDS011;7633;60.024;18.770;2023-12-22T14:14:37;3.40;;;1.90;;
15067;SDS011;7633;60.024;18.770;2023-12-22T14:17:03;4.93;;;2.10;;
15067;SDS011;7633;60.024;18.770;2023-12-22T14:19:28;2.77;;;1.73;;
15067;SDS011;7633;60.024;18.770;2023-12-22T14:21:53;2.90;;;1.53;;
15067;SDS011;7633;60.024;18.770;2023-12-22T14:24:19;3.00;;;1.83;;
15067;SDS011;7633;60.024;18.770;2023-12-22T14:26:54;3.70;;;2.10;;
15067;SDS011;7633;60.024;18.770;2023-12-22T14:29:20;2.97;;;1.57;;
15067;SDS011;7633;60.024;18.770;2023-12-22T14:31:48;2.60;;;1.43;;
15067;SDS011;7633;60.024;18.770;2023-12-22T14:34:13;2.70;;;2.00;;
15067;SDS011;7633;60.024;18.770;2023-12-22T14:36:39;1.83;;;1.43;;
15067;SDS011;7633;60.024;18.770;2023-12-22T14:39:04;5.27;;;2.00;;
15067;SDS011;7633;60.024;18.770;2023-12-22T14:41:30;3.30;;;2.10;;
15067;SDS011;7633;60.024;18.770;2023-12-22T14:43:56;2.30;;;1.33;;
15067;SDS011;7633;60.024;18.770;2023-12-22T14:46:21;3.63;;;2.13;;
15067;SDS011;7633;60.024;18.770;2023-12-22T14:48:47;3.20;;;2.17;;
15067;SDS011;7633;60.024;18.770;2023-12-22T14:51:12;2.53;;;1.83;;